createdAt,value
2023-02-03T00:01:35.861Z,87.34
2023-02-03T00:04:02.729Z,87.19
2023-02-03T00:06:30.807Z,87.58
2023-02-03T00:08:59.348Z,87.33
2023-02-03T00:11:26.836Z,87.57
2023-02-03T00:13:53.684Z,87.47
2023-02-03T00:16:20.553Z,87.60
2023-02-03T00:18:47.411Z,87.30
2023-02-03T00:21:15.107Z,87.19
2023-02-03T00:23:42.758Z,87.54
2023-02-03T00:26:17.167Z,87.43
2023-02-03T00:28:44.908Z,87.55
2023-02-03T00:31:16.860Z,87.54
2023-02-03T00:33:43.852Z,87.84
2023-02-03T00:36:11.136Z,87.70
2023-02-03T00:38:38.038Z,87.47
2023-02-03T00:41:05.179Z,87.96
2023-02-03T00:43:32.012Z,87.67
2023-02-03T00:45:58.926Z,87.49
2023-02-03T00:48:25.781Z,87.37
2023-02-03T00:50:52.619Z,87.69
2023-02-03T00:53:19.461Z,87.69
2023-02-03T00:55:46.911Z,87.66
2023-02-03T00:58:13.874Z,87.99
2023-02-03T01:00:40.754Z,87.62
2023-02-03T01:03:07.612Z,88.08
2023-02-03T01:05:34.568Z,88.00
2023-02-03T01:08:01.676Z,87.90
2023-02-03T01:10:29.489Z,87.71
2023-02-03T01:12:56.635Z,88.13
2023-02-03T01:15:23.565Z,88.17
2023-02-03T01:17:50.418Z,87.93
2023-02-03T01:20:18.054Z,87.96
2023-02-03T01:22:44.883Z,87.85
2023-02-03T01:25:11.727Z,88.19
2023-02-03T01:27:38.592Z,87.74
2023-02-03T01:30:05.664Z,87.84
2023-02-03T01:32:32.516Z,87.88
2023-02-03T01:34:59.368Z,88.19
2023-02-03T01:37:26.229Z,87.99
2023-02-03T01:39:54.505Z,88.29
2023-02-03T01:42:21.351Z,88.42
2023-02-03T01:44:52.886Z,88.33
2023-02-03T01:47:43.507Z,88.10
2023-02-03T01:50:34.222Z,88.33
2023-02-03T01:53:08.612Z,88.28
2023-02-03T01:55:42.521Z,88.31
2023-02-03T01:58:09.335Z,88.05
2023-02-03T02:00:36.239Z,87.84
2023-02-03T02:03:04.571Z,88.56
2023-02-03T02:05:35.294Z,88.10
2023-02-03T02:08:03.985Z,88.26
2023-02-03T02:10:32.235Z,88.60
2023-02-03T02:12:59.914Z,88.14
2023-02-03T02:15:51.530Z,88.50
2023-02-03T02:18:30.256Z,88.42
2023-02-03T02:21:11.565Z,88.50
2023-02-03T02:24:05.814Z,88.23
2023-02-03T02:27:03.916Z,88.12
2023-02-03T02:29:49.071Z,88.62
2023-02-03T02:32:44.181Z,88.29
2023-02-03T02:35:16.964Z,88.63
2023-02-03T02:38:10.467Z,88.68
2023-02-03T02:41:14.803Z,88.47
2023-02-03T02:44:08.852Z,88.60
2023-02-03T02:46:42.613Z,88.65
2023-02-03T02:49:31.190Z,88.72
2023-02-03T02:52:00.273Z,88.77
2023-02-03T02:54:28.694Z,88.82
2023-02-03T02:56:59.331Z,88.75
2023-02-03T02:59:27.458Z,88.77
2023-02-03T03:01:54.361Z,89.30
2023-02-03T03:04:27.316Z,88.82
2023-02-03T03:06:59.638Z,88.72
2023-02-03T03:09:40.370Z,88.81
2023-02-03T03:12:20.875Z,89.01
2023-02-03T03:14:57.514Z,88.84
2023-02-03T03:17:27.511Z,89.12
2023-02-03T03:19:57.123Z,88.82
2023-02-03T03:22:31.953Z,89.39
2023-02-03T03:25:03.584Z,89.25
2023-02-03T03:27:35.865Z,89.29
2023-02-03T03:30:16.734Z,89.13
2023-02-03T03:32:43.912Z,89.27
2023-02-03T03:35:10.806Z,88.75
2023-02-03T03:37:48.899Z,88.87
2023-02-03T03:40:24.884Z,88.89
2023-02-03T03:43:02.923Z,88.71
2023-02-03T03:45:38.895Z,88.82
2023-02-03T03:48:14.158Z,89.25
2023-02-03T03:50:46.824Z,89.29
2023-02-03T03:53:16.121Z,88.58
2023-02-03T03:55:46.534Z,89.15
2023-02-03T03:58:21.001Z,89.20
2023-02-03T04:00:48.673Z,88.87
2023-02-03T04:03:30.512Z,89.70
2023-02-03T04:05:57.472Z,89.39
2023-02-03T04:08:24.318Z,89.21
2023-02-03T04:10:51.172Z,89.33
2023-02-03T04:13:20.130Z,89.30
2023-02-03T04:15:47.055Z,89.04
2023-02-03T04:18:15.050Z,89.49
2023-02-03T04:20:42.409Z,89.20
2023-02-03T04:23:10.053Z,89.59
2023-02-03T04:25:37.907Z,89.80
2023-02-03T04:28:06.039Z,90.07
2023-02-03T04:30:33.405Z,89.69
2023-02-03T04:33:00.305Z,90.01
2023-02-03T04:35:27.175Z,90.38
2023-02-03T04:37:54.005Z,90.34
2023-02-03T04:40:20.892Z,90.22
2023-02-03T04:42:47.736Z,90.20
2023-02-03T04:45:14.630Z,90.55
2023-02-03T04:47:41.511Z,90.79
2023-02-03T04:50:08.823Z,90.98
2023-02-03T04:52:35.662Z,90.68
2023-02-03T04:55:03.961Z,90.34
2023-02-03T04:57:31.004Z,90.64
2023-02-03T04:59:57.840Z,90.77
2023-02-03T05:02:24.718Z,91.09
2023-02-03T05:04:51.543Z,91.57
2023-02-03T05:07:18.399Z,91.33
2023-02-03T05:09:45.315Z,91.79
2023-02-03T05:12:12.186Z,91.90
2023-02-03T05:14:39.011Z,91.93
2023-02-03T05:17:05.872Z,92.23
2023-02-03T05:19:32.704Z,92.02
2023-02-03T05:21:59.565Z,91.58
2023-02-03T05:24:26.394Z,91.41
2023-02-03T05:26:53.313Z,92.01
2023-02-03T05:29:20.185Z,92.08
2023-02-03T05:31:47.136Z,91.73
2023-02-03T05:34:14.038Z,92.15
2023-02-03T05:36:40.879Z,92.33
2023-02-03T05:39:07.717Z,92.21
2023-02-03T05:41:52.463Z,92.18
2023-02-03T05:44:20.705Z,91.67
2023-02-03T05:46:47.985Z,91.92
2023-02-03T05:49:15.197Z,91.70
2023-02-03T05:51:42.578Z,91.75
2023-02-03T05:54:09.985Z,91.85
2023-02-03T05:56:37.554Z,91.57
2023-02-03T05:59:05.281Z,92.14
2023-02-03T06:01:33.156Z,92.01
2023-02-03T06:04:00.603Z,92.17
2023-02-03T06:06:33.015Z,92.30
2023-02-03T06:09:05.755Z,91.90
2023-02-03T06:11:33.516Z,92.75
2023-02-03T06:14:00.571Z,92.42
2023-02-03T06:16:28.637Z,91.77
2023-02-03T06:19:00.836Z,91.78
2023-02-03T06:21:28.459Z,92.52
2023-02-03T06:23:56.463Z,92.53
2023-02-03T06:26:23.728Z,92.16
2023-02-03T06:28:50.830Z,92.44
2023-02-03T06:31:17.826Z,92.25
2023-02-03T06:33:44.904Z,91.99
2023-02-03T06:36:11.766Z,92.25
2023-02-03T06:38:38.605Z,92.39
2023-02-03T06:41:05.438Z,92.43
2023-02-03T06:43:32.348Z,92.52
2023-02-03T06:45:59.242Z,92.62
2023-02-03T06:48:26.097Z,92.76
2023-02-03T06:50:52.948Z,92.69
2023-02-03T06:53:19.784Z,92.81
2023-02-03T06:55:47.919Z,92.75
2023-02-03T06:58:15.143Z,92.35
2023-02-03T07:00:41.980Z,92.82
2023-02-03T07:03:09.080Z,92.27
2023-02-03T07:05:36.811Z,92.57
2023-02-03T07:08:03.696Z,92.38
2023-02-03T07:10:30.741Z,92.91
2023-02-03T07:13:02.815Z,92.59
2023-02-03T07:15:29.935Z,92.79
2023-02-03T07:17:58.157Z,92.97
2023-02-03T07:20:25.380Z,92.25
2023-02-03T07:22:54.026Z,93.15
2023-02-03T07:25:21.272Z,92.67
2023-02-03T07:27:48.174Z,92.79
2023-02-03T07:30:15.578Z,92.81
2023-02-03T07:32:47.234Z,92.90
2023-02-03T07:35:14.145Z,93.20
2023-02-03T07:37:41.739Z,93.45
2023-02-03T07:40:10.067Z,93.86
2023-02-03T07:42:40.902Z,93.65
2023-02-03T07:45:10.427Z,94.16
2023-02-03T07:47:37.293Z,93.46
2023-02-03T07:50:04.874Z,93.56
2023-02-03T07:52:31.757Z,94.08
2023-02-03T07:54:58.601Z,93.37
2023-02-03T07:57:25.429Z,93.81
2023-02-03T07:59:52.284Z,93.29
2023-02-03T08:02:19.211Z,94.29
2023-02-03T08:04:46.428Z,93.63
2023-02-03T08:07:13.288Z,93.93
2023-02-03T08:09:40.115Z,94.31
2023-02-03T08:12:06.986Z,94.51
2023-02-03T08:14:33.817Z,94.03
2023-02-03T08:17:00.647Z,93.83
2023-02-03T08:19:27.539Z,94.64
2023-02-03T08:21:54.363Z,94.54
2023-02-03T08:24:21.225Z,94.62
2023-02-03T08:26:48.107Z,94.40
2023-02-03T08:29:14.932Z,94.27
2023-02-03T08:31:42.408Z,93.98
2023-02-03T08:34:09.302Z,94.14
2023-02-03T08:36:39.219Z,93.77
2023-02-03T08:39:06.991Z,93.71
2023-02-03T08:41:34.338Z,93.86
2023-02-03T08:44:01.713Z,94.14
2023-02-03T08:46:28.608Z,94.04
2023-02-03T08:48:56.471Z,94.40
2023-02-03T08:51:24.541Z,94.06
2023-02-03T08:53:51.927Z,93.87
2023-02-03T08:56:18.835Z,94.18
2023-02-03T08:58:45.743Z,94.13
2023-02-03T09:01:15.197Z,94.30
2023-02-03T09:03:42.307Z,93.73
2023-02-03T09:06:11.589Z,94.21
2023-02-03T09:08:39.114Z,94.25
2023-02-03T09:11:14.268Z,94.39
2023-02-03T09:13:45.686Z,94.59
2023-02-03T09:16:13.948Z,94.71
2023-02-03T09:18:40.802Z,94.92
2023-02-03T09:21:13.937Z,94.81
2023-02-03T09:23:47.828Z,94.52
2023-02-03T09:26:14.979Z,94.41
2023-02-03T09:28:41.845Z,95.06
2023-02-03T09:31:13.201Z,94.92
2023-02-03T09:33:40.861Z,95.46
2023-02-03T09:36:08.088Z,95.34
2023-02-03T09:38:35.270Z,95.23
2023-02-03T09:41:30.307Z,95.78
2023-02-03T09:44:15.599Z,95.23
2023-02-03T09:46:45.931Z,95.63
2023-02-03T09:49:14.699Z,95.54
2023-02-03T09:51:52.171Z,95.30
2023-02-03T09:54:33.018Z,94.94
2023-02-03T09:57:00.779Z,95.41
2023-02-03T09:59:30.521Z,95.41
2023-02-03T10:02:20.663Z,95.14
2023-02-03T10:04:57.803Z,95.29
2023-02-03T10:07:58.030Z,95.90
2023-02-03T10:10:39.522Z,95.62
2023-02-03T10:13:50.511Z,96.01
2023-02-03T10:16:35.655Z,95.95
2023-02-03T10:19:07.797Z,95.62
2023-02-03T10:21:38.339Z,95.57
2023-02-03T10:24:10.793Z,95.39
2023-02-03T10:26:38.927Z,95.03
2023-02-03T10:29:39.521Z,95.57
2023-02-03T10:32:13.129Z,95.39
2023-02-03T10:34:43.508Z,95.60
2023-02-03T10:37:16.837Z,95.30
2023-02-03T10:39:51.969Z,95.45
2023-02-03T10:42:19.551Z,95.32
2023-02-03T10:44:56.455Z,94.83
2023-02-03T10:47:30.833Z,94.91
2023-02-03T10:49:58.592Z,94.85
2023-02-03T10:52:34.080Z,95.46
2023-02-03T10:55:27.306Z,95.52
2023-02-03T10:57:54.493Z,95.76
2023-02-03T11:00:30.344Z,96.16
2023-02-03T11:03:28.147Z,95.83
2023-02-03T11:06:04.243Z,95.65
2023-02-03T11:08:32.199Z,95.48
2023-02-03T11:11:08.658Z,95.63
2023-02-03T11:13:35.919Z,95.42
2023-02-03T11:16:05.650Z,95.32
2023-02-03T11:18:52.054Z,95.60
2023-02-03T11:21:28.510Z,95.17
2023-02-03T11:24:15.029Z,95.51
2023-02-03T11:26:51.030Z,95.46
2023-02-03T11:29:24.032Z,95.60
2023-02-03T11:31:59.947Z,95.38
2023-02-03T11:34:33.171Z,95.31
2023-02-03T11:37:26.914Z,95.39
2023-02-03T11:40:12.544Z,95.15
2023-02-03T11:42:41.399Z,95.29
2023-02-03T11:45:17.236Z,94.92
2023-02-03T11:47:49.137Z,95.03
2023-02-03T11:50:37.604Z,94.73
2023-02-03T11:53:16.434Z,94.87
2023-02-03T11:56:06.926Z,94.82
2023-02-03T11:58:45.807Z,94.94
2023-02-03T12:01:22.166Z,94.80
2023-02-03T12:04:04.275Z,94.46
2023-02-03T12:07:08.385Z,94.68
2023-02-03T12:09:53.142Z,94.43
2023-02-03T12:12:38.590Z,94.25
2023-02-03T12:15:26.901Z,94.66
2023-02-03T12:18:12.483Z,94.50
2023-02-03T12:21:00.951Z,94.07
2023-02-03T12:23:41.296Z,93.93
2023-02-03T12:26:22.402Z,94.29
2023-02-03T12:29:02.996Z,93.99
2023-02-03T12:31:45.706Z,94.29
2023-02-03T12:34:29.661Z,94.08
2023-02-03T12:37:13.378Z,94.17
2023-02-03T12:39:47.912Z,93.78
2023-02-03T12:42:29.838Z,93.82
2023-02-03T12:45:05.692Z,93.91
2023-02-03T12:47:53.218Z,93.91
2023-02-03T12:50:37.550Z,93.41
2023-02-03T12:53:24.798Z,93.67
2023-02-03T12:56:10.770Z,93.45
2023-02-03T12:58:58.401Z,93.55
2023-02-03T13:01:29.809Z,93.42
2023-02-03T13:04:12.854Z,93.42
2023-02-03T13:06:49.844Z,93.85
2023-02-03T13:09:38.271Z,93.42
2023-02-03T13:12:30.020Z,93.36
2023-02-03T13:15:16.097Z,93.47
2023-02-03T13:18:01.125Z,93.40
2023-02-03T13:20:35.903Z,93.70
2023-02-03T13:23:21.834Z,93.61
2023-02-03T13:26:14.178Z,93.49
2023-02-03T13:29:09.190Z,93.05
2023-02-03T13:31:35.960Z,93.47
2023-02-03T13:34:32.231Z,92.96
2023-02-03T13:37:44.372Z,93.35
2023-02-03T13:40:22.351Z,92.69
2023-02-03T13:43:14.249Z,92.79
2023-02-03T13:45:45.092Z,92.68
2023-02-03T13:48:18.647Z,92.29
2023-02-03T13:50:46.496Z,92.68
2023-02-03T13:53:24.617Z,92.31
2023-02-03T13:56:03.597Z,92.06
2023-02-03T13:58:32.662Z,92.24
2023-02-03T14:01:03.821Z,91.97
2023-02-03T14:03:30.619Z,91.98
2023-02-03T14:06:00.988Z,91.88
2023-02-03T14:08:27.761Z,92.42
2023-02-03T14:11:31.959Z,91.95
2023-02-03T14:14:07.623Z,92.53
2023-02-03T14:16:39.475Z,91.77
2023-02-03T14:19:29.664Z,92.03
2023-02-03T14:22:07.958Z,91.91
2023-02-03T14:24:45.428Z,91.95
2023-02-03T14:27:23.372Z,92.01
2023-02-03T14:30:13.215Z,92.11
2023-02-03T14:32:57.879Z,92.08
2023-02-03T14:35:35.007Z,92.03
2023-02-03T14:38:08.271Z,92.05
2023-02-03T14:40:50.292Z,92.17
2023-02-03T14:43:20.566Z,92.29
2023-02-03T14:46:01.822Z,92.19
2023-02-03T14:48:53.992Z,92.19
2023-02-03T14:51:47.564Z,91.92
2023-02-03T14:54:17.866Z,91.95
2023-02-03T14:57:12.444Z,92.25
2023-02-03T15:00:03.330Z,92.38
2023-02-03T15:02:31.362Z,92.22
2023-02-03T15:05:13.480Z,92.61
2023-02-03T15:07:45.628Z,92.19
2023-02-03T15:10:18.419Z,92.44
2023-02-03T15:12:48.301Z,92.48
2023-02-03T15:15:21.263Z,92.38
2023-02-03T15:17:49.972Z,92.30
2023-02-03T15:20:27.379Z,92.67
2023-02-03T15:22:54.225Z,92.51
2023-02-03T15:25:25.088Z,92.20
2023-02-03T15:27:52.258Z,92.38
2023-02-03T15:30:27.545Z,92.58
2023-02-03T15:33:06.718Z,92.73
2023-02-03T15:35:36.557Z,92.26
2023-02-03T15:38:06.419Z,92.33
2023-02-03T15:40:47.533Z,92.86
2023-02-03T15:43:19.304Z,92.33
2023-02-03T15:45:58.303Z,92.71
2023-02-03T15:48:34.171Z,92.52
2023-02-03T15:51:02.879Z,92.60
2023-02-03T15:53:46.887Z,92.48
2023-02-03T15:56:35.577Z,92.61
2023-02-03T15:59:02.496Z,92.97
2023-02-03T16:01:30.299Z,92.65
2023-02-03T16:03:58.453Z,93.06
2023-02-03T16:06:36.900Z,92.80
2023-02-03T16:09:06.792Z,92.88
2023-02-03T16:11:35.877Z,93.35
2023-02-03T16:14:10.128Z,93.39
2023-02-03T16:16:38.624Z,93.19
2023-02-03T16:19:16.401Z,93.20
2023-02-03T16:21:53.263Z,93.48
2023-02-03T16:24:32.355Z,93.31
2023-02-03T16:27:27.118Z,92.81
2023-02-03T16:30:32.890Z,93.04
2023-02-03T16:33:27.406Z,93.04
2023-02-03T16:36:14.404Z,93.49
2023-02-03T16:39:07.141Z,93.36
2023-02-03T16:41:52.725Z,93.16
2023-02-03T16:44:38.139Z,93.53
2023-02-03T16:47:44.588Z,93.82
2023-02-03T16:50:39.686Z,93.79
2023-02-03T16:53:12.415Z,93.64
2023-02-03T16:55:39.938Z,93.84
2023-02-03T16:58:06.876Z,93.99
2023-02-03T17:00:33.933Z,93.83
2023-02-03T17:03:04.159Z,93.51
2023-02-03T17:05:31.376Z,93.34
2023-02-03T17:07:58.441Z,93.89
2023-02-03T17:10:26.315Z,93.99
2023-02-03T17:12:53.191Z,94.00
2023-02-03T17:15:20.047Z,93.83
2023-02-03T17:17:46.942Z,93.59
2023-02-03T17:20:13.837Z,93.59
2023-02-03T17:22:40.662Z,93.81
2023-02-03T17:25:07.978Z,94.22
2023-02-03T17:27:34.816Z,93.79
2023-02-03T17:30:01.783Z,93.71
2023-02-03T17:32:28.693Z,93.95
2023-02-03T17:34:55.545Z,93.97
2023-02-03T17:37:22.378Z,93.51
2023-02-03T17:53:33.073Z,94.35
2023-02-03T17:56:13.029Z,94.25
2023-02-03T17:58:40.793Z,94.03
2023-02-03T18:01:18.570Z,93.94
2023-02-03T18:03:51.231Z,93.83
2023-02-03T18:06:20.073Z,94.22
2023-02-03T18:08:48.598Z,94.02
2023-02-03T18:11:16.675Z,94.31
2023-02-03T18:13:48.946Z,94.33
2023-02-03T18:16:19.977Z,94.47
2023-02-03T18:18:46.839Z,94.26
2023-02-03T18:21:15.497Z,93.81
2023-02-03T18:23:42.577Z,94.41
2023-02-03T18:26:11.390Z,93.96
2023-02-03T18:28:39.484Z,94.05
2023-02-03T18:31:12.042Z,94.59
2023-02-03T18:33:39.095Z,94.61
2023-02-03T18:36:06.836Z,94.39
2023-02-03T18:38:35.293Z,94.42
2023-02-03T18:41:07.238Z,94.54
2023-02-03T18:43:34.118Z,93.77
2023-02-03T18:46:16.452Z,94.46
2023-02-03T18:48:43.336Z,94.34
2023-02-03T18:51:12.163Z,94.17
2023-02-03T18:53:39.732Z,94.21
2023-02-03T18:56:10.737Z,94.53
2023-02-03T18:58:38.114Z,94.28
2023-02-03T19:01:05.194Z,94.73
2023-02-03T19:03:32.090Z,94.48
2023-02-03T19:05:58.972Z,94.15
2023-02-03T19:08:25.890Z,94.74
2023-02-03T19:10:54.478Z,94.54
2023-02-03T19:13:21.991Z,94.18
2023-02-03T19:15:49.412Z,94.53
2023-02-03T19:18:16.443Z,94.41
2023-02-03T19:20:43.662Z,94.35
2023-02-03T19:23:13.626Z,94.69
2023-02-03T19:25:40.582Z,94.71
2023-02-03T19:28:14.224Z,94.31
2023-02-03T19:30:44.566Z,94.52
2023-02-03T19:33:11.516Z,94.20
2023-02-03T19:35:38.539Z,94.42
2023-02-03T19:38:05.395Z,94.20
2023-02-03T19:40:32.777Z,94.17
2023-02-03T19:42:59.852Z,94.83
2023-02-03T19:45:27.299Z,94.44
2023-02-03T19:47:54.182Z,94.27
2023-02-03T19:50:21.019Z,94.66
2023-02-03T19:52:49.019Z,94.38
2023-02-03T19:55:17.025Z,94.24
2023-02-03T19:57:43.889Z,94.33
2023-02-03T20:00:11.246Z,94.18
2023-02-03T20:02:41.457Z,94.70
2023-02-03T20:05:08.905Z,94.56
2023-02-03T20:07:35.836Z,94.42
2023-02-03T20:10:02.710Z,94.53
2023-02-03T20:12:31.696Z,94.38
2023-02-03T20:15:01.269Z,94.39
2023-02-03T20:17:28.778Z,94.53
2023-02-03T20:19:55.601Z,94.68
2023-02-03T20:22:22.492Z,94.79
2023-02-03T20:24:49.391Z,94.74
2023-02-03T20:27:17.767Z,94.58
2023-02-03T20:29:44.834Z,94.51
2023-02-03T20:32:11.844Z,94.74
2023-02-03T20:34:39.512Z,94.56
2023-02-03T20:37:07.886Z,94.32
2023-02-03T20:39:35.007Z,94.69
2023-02-03T20:42:01.846Z,94.62
2023-02-03T20:44:28.743Z,94.38
2023-02-03T20:46:55.892Z,94.51
2023-02-03T20:49:22.793Z,94.42
2023-02-03T20:51:49.769Z,94.06
2023-02-03T20:54:18.910Z,94.70
2023-02-03T20:56:45.938Z,94.55
2023-02-03T20:59:15.736Z,94.35
2023-02-03T21:01:42.796Z,94.37
2023-02-03T21:04:35.846Z,94.29
2023-02-03T21:07:13.813Z,94.43
2023-02-03T21:09:40.667Z,94.73
2023-02-03T21:12:15.037Z,94.59
2023-02-03T21:14:43.596Z,94.50
2023-02-03T21:17:18.994Z,94.53
2023-02-03T21:19:46.191Z,94.22
2023-02-03T21:22:21.794Z,94.30
2023-02-03T21:24:59.091Z,94.59
2023-02-03T21:27:31.434Z,94.33
2023-02-03T21:30:00.277Z,94.30
2023-02-03T21:32:37.204Z,94.48
2023-02-03T21:35:19.622Z,94.16
2023-02-03T21:37:46.676Z,94.33
2023-02-03T21:40:21.524Z,94.37
2023-02-03T21:42:48.393Z,94.19
2023-02-03T21:45:16.442Z,94.16
2023-02-03T21:47:44.789Z,94.05
2023-02-03T21:50:32.768Z,94.27
2023-02-03T21:53:09.121Z,94.47
2023-02-03T21:55:39.158Z,94.45
2023-02-03T21:58:31.061Z,94.56
2023-02-03T22:01:03.809Z,94.53
2023-02-03T22:03:33.452Z,94.21
2023-02-03T22:06:50.207Z,94.51
2023-02-03T22:09:19.363Z,94.15
2023-02-03T22:11:46.422Z,94.11
2023-02-03T22:14:14.581Z,94.00
2023-02-03T22:16:41.527Z,94.16
2023-02-03T22:19:08.803Z,94.39
2023-02-03T22:21:35.838Z,94.17
2023-02-03T22:24:02.883Z,93.93
2023-02-03T22:26:29.780Z,93.93
2023-02-03T22:28:56.631Z,94.35
2023-02-03T22:31:23.600Z,93.82
2023-02-03T22:33:50.505Z,94.03
2023-02-03T22:36:17.414Z,94.17
2023-02-03T22:38:44.275Z,94.34
2023-02-03T22:41:14.243Z,93.78
2023-02-03T22:43:41.410Z,94.27
2023-02-03T22:46:08.391Z,94.04
2023-02-03T22:48:35.385Z,94.29
2023-02-03T22:51:03.118Z,93.79
2023-02-03T22:53:30.038Z,93.76
2023-02-03T22:55:56.933Z,93.68
2023-02-03T22:58:23.784Z,93.69
2023-02-03T23:00:50.674Z,94.27
2023-02-03T23:03:17.623Z,94.17
2023-02-03T23:05:44.487Z,94.18
2023-02-03T23:08:11.375Z,94.03
2023-02-03T23:10:38.192Z,94.08
2023-02-03T23:13:05.120Z,93.92
2023-02-03T23:15:32.225Z,93.86
2023-02-03T23:17:59.140Z,94.05
2023-02-03T23:20:25.990Z,94.25
2023-02-03T23:22:52.841Z,94.08
2023-02-03T23:25:19.696Z,93.91
2023-02-03T23:27:46.744Z,94.23
2023-02-03T23:30:14.264Z,94.26
2023-02-03T23:32:41.109Z,93.84
2023-02-03T23:35:26.893Z,94.23
2023-02-03T23:37:53.745Z,94.20
2023-02-03T23:40:20.674Z,93.74
2023-02-03T23:42:47.554Z,94.30
2023-02-03T23:45:14.472Z,93.79
2023-02-03T23:47:42.941Z,93.90
2023-02-03T23:50:11.976Z,93.64
2023-02-03T23:52:38.840Z,94.21
2023-02-03T23:55:07.967Z,94.01
2023-02-03T23:57:34.818Z,94.06
